createdAt,value
2022-12-17T00:01:26.718Z,88.03
2022-12-17T00:04:13.601Z,85.72
2022-12-17T00:07:00.044Z,88.78
2022-12-17T00:09:50.532Z,87.32
2022-12-17T00:12:36.787Z,86.65
2022-12-17T00:15:24.221Z,85.33
2022-12-17T00:18:10.784Z,84.37
2022-12-17T00:20:57.615Z,87.50
2022-12-17T00:23:44.147Z,87.08
2022-12-17T00:26:30.728Z,84.91
2022-12-17T00:29:17.036Z,86.72
2022-12-17T00:32:04.032Z,86.46
2022-12-17T00:34:50.332Z,86.95
2022-12-17T00:37:36.784Z,84.09
2022-12-17T00:40:23.665Z,88.48
2022-12-17T00:43:28.035Z,85.72
2022-12-17T00:46:15.009Z,87.31
2022-12-17T00:49:02.364Z,85.94
2022-12-17T00:51:49.516Z,88.75
2022-12-17T00:54:36.514Z,87.79
2022-12-17T00:57:24.128Z,88.58
2022-12-17T01:00:13.181Z,91.21
2022-12-17T01:02:59.871Z,89.55
2022-12-17T01:05:46.524Z,87.72
2022-12-17T01:08:34.517Z,87.94
2022-12-17T01:11:24.742Z,89.27
2022-12-17T01:14:14.211Z,85.25
2022-12-17T01:17:01.141Z,84.11
2022-12-17T01:19:47.601Z,85.72
2022-12-17T01:22:35.417Z,84.05
2022-12-17T01:25:21.989Z,89.01
2022-12-17T01:28:09.482Z,85.82
2022-12-17T01:30:59.023Z,85.86
2022-12-17T01:33:45.935Z,88.14
2022-12-17T01:36:32.387Z,86.56
2022-12-17T01:39:18.999Z,86.89
2022-12-17T01:42:05.457Z,84.67
2022-12-17T01:45:01.355Z,83.64
2022-12-17T01:48:06.464Z,83.36
2022-12-17T01:51:00.424Z,82.64
2022-12-17T01:54:00.150Z,82.09
2022-12-17T01:56:47.581Z,84.16
2022-12-17T01:59:35.650Z,82.99
2022-12-17T02:02:27.940Z,82.11
2022-12-17T02:05:16.121Z,83.20
2022-12-17T02:08:24.639Z,84.00
2022-12-17T02:11:41.419Z,82.57
2022-12-17T02:14:31.851Z,82.25
2022-12-17T02:17:22.248Z,83.34
2022-12-17T02:20:21.756Z,83.33
2022-12-17T02:23:34.518Z,84.12
2022-12-17T02:27:02.860Z,84.96
2022-12-17T02:29:58.545Z,83.72
2022-12-17T02:32:46.589Z,83.08
2022-12-17T02:35:36.533Z,83.95
2022-12-17T02:38:41.696Z,85.40
2022-12-17T02:41:36.246Z,84.28
2022-12-17T02:44:26.124Z,83.94
2022-12-17T02:47:14.910Z,84.71
2022-12-17T02:50:06.168Z,83.37
2022-12-17T02:53:01.698Z,83.53
2022-12-17T02:55:48.642Z,83.13
2022-12-17T02:58:35.514Z,82.66
2022-12-17T03:01:23.995Z,81.68
2022-12-17T03:04:10.400Z,82.04
2022-12-17T03:06:57.311Z,81.34
2022-12-17T03:09:43.694Z,81.43
2022-12-17T03:12:30.233Z,81.79
2022-12-17T03:15:16.784Z,81.10
2022-12-17T03:18:03.629Z,81.88
2022-12-17T03:20:52.668Z,82.30
2022-12-17T03:23:39.594Z,82.19
2022-12-17T03:26:28.916Z,81.94
2022-12-17T03:29:15.404Z,81.59
2022-12-17T03:32:02.029Z,81.37
2022-12-17T03:34:48.886Z,81.17
2022-12-17T03:37:35.182Z,81.63
2022-12-17T03:40:22.740Z,81.82
2022-12-17T03:43:09.196Z,82.22
2022-12-17T03:45:56.708Z,81.31
2022-12-17T03:48:43.260Z,83.11
2022-12-17T03:51:30.082Z,82.01
2022-12-17T03:54:19.111Z,82.83
2022-12-17T03:57:05.736Z,83.12
2022-12-17T03:59:52.116Z,83.71
2022-12-17T04:02:38.939Z,83.45
2022-12-17T04:05:26.318Z,82.21
2022-12-17T04:08:12.941Z,84.48
2022-12-17T04:10:59.745Z,84.43
2022-12-17T04:13:48.896Z,84.19
2022-12-17T04:16:35.650Z,83.29
2022-12-17T04:19:22.090Z,83.75
2022-12-17T04:22:08.954Z,86.46
2022-12-17T04:24:55.375Z,83.11
2022-12-17T04:27:42.191Z,83.43
2022-12-17T04:30:29.369Z,84.30
2022-12-17T04:33:19.489Z,83.79
2022-12-17T04:36:06.027Z,82.52
2022-12-17T04:38:56.071Z,81.31
2022-12-17T04:41:42.593Z,81.91
2022-12-17T04:44:28.979Z,81.07
2022-12-17T04:47:15.503Z,81.72
2022-12-17T04:50:05.073Z,81.56
2022-12-17T04:52:51.590Z,83.34
2022-12-17T04:55:38.243Z,85.00
2022-12-17T04:58:25.338Z,85.26
2022-12-17T05:01:15.180Z,85.46
2022-12-17T05:04:01.503Z,84.71
2022-12-17T05:06:49.044Z,84.40
2022-12-17T05:09:35.545Z,82.49
2022-12-17T05:12:22.582Z,82.00
2022-12-17T05:15:09.183Z,81.96
2022-12-17T05:17:56.319Z,83.30
2022-12-17T05:20:43.262Z,82.08
2022-12-17T05:23:30.423Z,82.41
2022-12-17T05:26:37.287Z,83.36
2022-12-17T05:29:43.927Z,83.07
2022-12-17T05:32:30.431Z,82.98
2022-12-17T05:35:16.991Z,84.93
2022-12-17T05:38:06.086Z,87.29
2022-12-17T05:40:52.968Z,86.70
2022-12-17T05:43:39.410Z,87.75
2022-12-17T05:46:26.393Z,86.52
2022-12-17T05:49:12.922Z,86.37
2022-12-17T05:51:59.845Z,87.60
2022-12-17T05:54:46.205Z,83.73
2022-12-17T05:57:32.906Z,86.97
2022-12-17T06:00:19.280Z,84.46
2022-12-17T06:03:05.954Z,86.04
2022-12-17T06:05:52.294Z,86.30
2022-12-17T06:08:38.816Z,88.03
2022-12-17T06:11:25.357Z,88.30
2022-12-17T06:14:12.204Z,86.63
2022-12-17T06:16:58.320Z,87.37
2022-12-17T06:19:45.207Z,85.27
2022-12-17T06:22:31.635Z,86.38
2022-12-17T06:25:18.447Z,86.83
2022-12-17T06:28:04.815Z,86.44
2022-12-17T06:30:51.762Z,86.25
2022-12-17T06:33:38.338Z,87.25
2022-12-17T06:36:28.135Z,89.15
2022-12-17T06:39:14.279Z,90.76
2022-12-17T06:42:05.153Z,89.88
2022-12-17T06:44:55.241Z,90.96
2022-12-17T06:47:41.771Z,88.43
2022-12-17T06:50:29.102Z,85.19
2022-12-17T06:53:23.665Z,85.65
2022-12-17T06:56:10.466Z,84.52
2022-12-17T06:58:57.163Z,83.41
2022-12-17T07:01:43.721Z,83.56
2022-12-17T07:04:35.374Z,83.94
2022-12-17T07:07:22.008Z,86.33
2022-12-17T07:10:13.898Z,86.63
2022-12-17T07:13:00.840Z,86.54
2022-12-17T07:15:47.656Z,86.16
2022-12-17T07:18:33.939Z,86.91
2022-12-17T07:21:20.883Z,86.97
2022-12-17T07:24:07.338Z,87.54
2022-12-17T07:26:53.993Z,85.43
2022-12-17T07:29:40.416Z,86.76
2022-12-17T07:32:27.019Z,86.74
2022-12-17T07:35:13.987Z,86.64
2022-12-17T07:38:00.641Z,86.23
2022-12-17T07:40:46.864Z,87.71
2022-12-17T07:43:35.164Z,84.89
2022-12-17T07:46:21.874Z,83.16
2022-12-17T07:49:08.826Z,83.79
2022-12-17T07:51:55.250Z,85.71
2022-12-17T07:54:42.019Z,85.17
2022-12-17T07:57:28.253Z,86.86
2022-12-17T08:00:14.889Z,86.34
2022-12-17T08:03:02.053Z,86.55
2022-12-17T08:08:52.612Z,88.16
2022-12-17T08:11:40.015Z,88.76
2022-12-17T08:14:26.967Z,88.41
2022-12-17T08:17:13.197Z,88.27
2022-12-17T08:20:00.680Z,88.37
2022-12-17T08:22:47.936Z,87.26
2022-12-17T08:25:34.270Z,87.28
2022-12-17T08:28:49.049Z,88.25
2022-12-17T08:31:30.500Z,88.04
2022-12-17T08:34:19.937Z,88.82
2022-12-17T08:37:26.542Z,87.98
2022-12-17T08:40:12.786Z,87.89
2022-12-17T08:42:59.792Z,87.09
2022-12-17T08:45:45.902Z,88.59
2022-12-17T08:48:32.510Z,89.12
2022-12-17T08:51:18.698Z,86.92
2022-12-17T08:54:05.508Z,85.71
2022-12-17T08:56:51.915Z,86.80
2022-12-17T08:59:39.565Z,86.87
2022-12-17T09:02:28.413Z,87.65
2022-12-17T09:05:15.300Z,85.99
2022-12-17T09:08:07.151Z,85.41
2022-12-17T09:10:53.762Z,86.56
2022-12-17T09:13:40.404Z,86.10
2022-12-17T09:16:27.035Z,88.90
2022-12-17T09:19:17.468Z,88.71
2022-12-17T09:22:04.221Z,86.58
2022-12-17T09:24:50.809Z,86.23
2022-12-17T09:27:37.517Z,85.36
2022-12-17T09:30:24.538Z,88.65
2022-12-17T09:33:11.588Z,85.87
2022-12-17T09:35:59.148Z,85.40
2022-12-17T09:38:45.938Z,87.76
2022-12-17T09:42:12.734Z,87.54
2022-12-17T09:44:59.380Z,88.01
2022-12-17T09:48:17.400Z,89.34
2022-12-17T09:51:05.854Z,87.88
2022-12-17T09:54:08.733Z,89.76
2022-12-17T09:56:57.631Z,88.72
2022-12-17T09:59:47.996Z,88.56
2022-12-17T10:02:39.016Z,87.54
2022-12-17T10:05:32.118Z,87.64
2022-12-17T10:08:19.214Z,87.11
2022-12-17T10:11:06.129Z,86.42
2022-12-17T10:13:52.489Z,84.65
2022-12-17T10:16:47.598Z,85.59
2022-12-17T10:19:51.470Z,87.77
2022-12-17T10:22:39.950Z,87.20
2022-12-17T10:25:39.749Z,85.86
2022-12-17T10:28:41.499Z,86.48
2022-12-17T10:31:41.987Z,87.29
2022-12-17T10:34:35.234Z,88.00
2022-12-17T10:37:22.377Z,86.57
2022-12-17T10:40:29.947Z,84.67
2022-12-17T10:43:19.567Z,86.00
2022-12-17T10:46:16.159Z,83.07
2022-12-17T10:49:04.694Z,84.15
2022-12-17T10:51:57.257Z,85.03
2022-12-17T10:54:52.710Z,84.78
2022-12-17T10:57:57.831Z,86.92
2022-12-17T11:00:51.128Z,87.60
2022-12-17T11:03:51.308Z,88.47
2022-12-17T11:06:54.488Z,88.16
2022-12-17T11:10:03.808Z,87.84
2022-12-17T11:13:07.523Z,88.58
2022-12-17T11:16:04.641Z,88.45
2022-12-17T11:18:58.531Z,87.01
2022-12-17T11:21:54.513Z,88.23
2022-12-17T11:24:46.595Z,88.56
2022-12-17T11:27:42.970Z,88.87
2022-12-17T11:30:33.385Z,89.56
2022-12-17T11:33:37.077Z,89.25
2022-12-17T11:37:02.195Z,88.19
2022-12-17T11:39:54.886Z,88.17
2022-12-17T11:42:53.653Z,85.82
2022-12-17T11:45:56.223Z,86.15
2022-12-17T11:49:17.785Z,86.24
2022-12-17T11:52:37.978Z,85.97
2022-12-17T11:55:49.457Z,87.02
2022-12-17T11:58:45.827Z,86.86
2022-12-17T12:02:02.643Z,89.63
2022-12-17T12:05:12.600Z,87.51
2022-12-17T12:08:29.954Z,86.96
2022-12-17T12:11:51.826Z,84.48
2022-12-17T12:15:03.771Z,84.87
2022-12-17T12:18:07.463Z,84.77
2022-12-17T12:21:02.089Z,83.40
2022-12-17T12:24:22.803Z,85.69
2022-12-17T12:27:23.619Z,86.27
2022-12-17T12:30:24.556Z,85.76
2022-12-17T12:33:19.685Z,85.97
2022-12-17T12:36:07.153Z,88.32
2022-12-17T12:39:01.161Z,87.25
2022-12-17T12:41:58.064Z,87.03
2022-12-17T12:45:10.612Z,87.94
2022-12-17T12:48:22.078Z,87.68
2022-12-17T12:51:45.207Z,87.37
2022-12-17T12:54:51.590Z,88.93
2022-12-17T12:57:53.011Z,86.98
2022-12-17T13:00:51.137Z,88.20
2022-12-17T13:03:47.423Z,88.18
2022-12-17T13:06:46.638Z,88.67
2022-12-17T13:09:18.293Z,86.62
2022-12-17T13:12:02.705Z,86.82
2022-12-17T13:14:50.306Z,87.63
2022-12-17T13:17:18.456Z,88.48
2022-12-17T13:19:59.898Z,87.55
2022-12-17T13:22:30.561Z,87.48
2022-12-17T13:25:17.392Z,89.00
2022-12-17T13:27:46.218Z,89.03
2022-12-17T13:30:33.416Z,87.32
2022-12-17T13:33:04.451Z,85.59
2022-12-17T13:35:34.907Z,86.26
2022-12-17T13:38:21.647Z,86.95
2022-12-17T13:41:19.733Z,87.03
2022-12-17T13:43:58.955Z,87.58
2022-12-17T13:46:37.035Z,88.57
2022-12-17T13:49:16.619Z,87.12
2022-12-17T13:51:44.490Z,87.24
2022-12-17T13:54:16.641Z,88.74
2022-12-17T13:56:45.456Z,86.40
2022-12-17T13:59:24.264Z,86.37
2022-12-17T14:01:55.299Z,87.00
2022-12-17T14:04:27.412Z,88.19
2022-12-17T14:07:02.980Z,88.84
2022-12-17T14:09:39.654Z,87.35
2022-12-17T14:12:24.093Z,86.53
2022-12-17T14:14:59.017Z,86.07
2022-12-17T14:17:44.717Z,85.93
2022-12-17T14:20:19.724Z,85.40
2022-12-17T14:22:52.710Z,85.29
2022-12-17T14:25:31.313Z,87.33
2022-12-17T14:28:02.237Z,85.91
2022-12-17T14:30:56.606Z,85.25
2022-12-17T14:33:32.661Z,84.87
2022-12-17T14:36:18.427Z,84.33
2022-12-17T14:39:01.130Z,85.67
2022-12-17T14:41:48.156Z,86.16
2022-12-17T14:44:27.837Z,88.97
2022-12-17T14:47:13.541Z,87.80
2022-12-17T14:49:55.980Z,86.25
2022-12-17T14:52:33.168Z,87.32
2022-12-17T14:55:00.957Z,89.14
2022-12-17T14:57:31.000Z,87.36
2022-12-17T14:59:58.767Z,86.68
2022-12-17T15:02:29.507Z,88.47
2022-12-17T15:05:03.175Z,89.91
2022-12-17T15:07:32.478Z,89.65
2022-12-17T15:10:00.765Z,90.13
2022-12-17T15:12:30.468Z,89.85
2022-12-17T15:15:01.430Z,91.10
2022-12-17T15:17:31.350Z,89.92
2022-12-17T15:19:59.202Z,88.58
2022-12-17T15:22:27.014Z,89.83
2022-12-17T15:24:55.018Z,88.96
2022-12-17T15:27:22.880Z,88.85
2022-12-17T15:29:50.719Z,87.77
2022-12-17T15:32:21.765Z,88.94
2022-12-17T15:34:50.865Z,87.81
2022-12-17T15:37:25.275Z,88.43
2022-12-17T15:39:53.652Z,87.82
2022-12-17T15:42:43.140Z,88.67
2022-12-17T15:45:11.351Z,88.96
2022-12-17T15:47:39.586Z,89.71
2022-12-17T15:50:08.122Z,89.86
2022-12-17T15:52:36.059Z,90.22
2022-12-17T15:55:04.418Z,88.62
2022-12-17T15:57:32.349Z,87.30
2022-12-17T16:00:00.245Z,86.98
2022-12-17T16:02:28.580Z,87.49
2022-12-17T16:04:57.007Z,86.89
2022-12-17T16:07:30.322Z,88.53
2022-12-17T16:10:04.545Z,88.49
2022-12-17T16:12:34.000Z,88.47
2022-12-17T16:15:03.030Z,88.49
2022-12-17T16:17:32.181Z,87.78
2022-12-17T16:20:01.006Z,87.58
2022-12-17T16:22:30.395Z,87.97
2022-12-17T16:24:58.305Z,86.34
2022-12-17T16:27:26.108Z,86.07
2022-12-17T16:29:54.359Z,86.63
2022-12-17T16:32:22.275Z,87.66
2022-12-17T16:34:50.134Z,87.62
2022-12-17T16:37:19.153Z,87.49
2022-12-17T16:39:47.041Z,87.96
2022-12-17T16:42:15.032Z,88.55
2022-12-17T16:44:43.445Z,88.37
2022-12-17T16:47:11.412Z,88.55
2022-12-17T16:49:39.136Z,88.81
2022-12-17T16:52:07.428Z,89.15
2022-12-17T16:54:35.150Z,88.76
2022-12-17T16:57:03.082Z,88.43
2022-12-17T16:59:31.311Z,88.08
2022-12-17T17:02:00.510Z,89.60
2022-12-17T17:04:28.903Z,90.57
2022-12-17T17:06:57.958Z,91.28
2022-12-17T17:09:26.040Z,91.85
2022-12-17T17:11:59.001Z,89.47
2022-12-17T17:14:27.986Z,91.54
2022-12-17T17:16:55.774Z,91.52
2022-12-17T17:19:23.679Z,91.40
2022-12-17T17:21:54.471Z,91.79
2022-12-17T17:24:27.183Z,92.01
2022-12-17T17:26:56.280Z,91.59
2022-12-17T17:29:24.235Z,92.00
2022-12-17T17:34:40.618Z,92.70
2022-12-17T17:37:08.510Z,91.26
2022-12-17T17:39:36.642Z,92.10
2022-12-17T17:42:05.464Z,92.61
2022-12-17T17:44:33.422Z,92.32
2022-12-17T17:47:01.903Z,90.11
2022-12-17T17:49:30.312Z,90.63
2022-12-17T17:52:13.593Z,89.22
2022-12-17T17:54:42.727Z,89.72
2022-12-17T17:57:10.852Z,90.27
2022-12-17T17:59:39.876Z,90.17
2022-12-17T18:02:10.135Z,88.36
2022-12-17T18:04:38.535Z,89.22
2022-12-17T18:07:24.831Z,87.65
2022-12-17T18:09:54.899Z,89.59
2022-12-17T18:12:42.001Z,89.18
2022-12-17T18:15:15.432Z,87.91
2022-12-17T18:17:51.198Z,88.30
2022-12-17T18:20:19.577Z,89.42
2022-12-17T18:22:47.542Z,88.22
2022-12-17T18:25:16.724Z,88.72
2022-12-17T18:27:45.697Z,89.79
2022-12-17T18:30:14.728Z,88.65
2022-12-17T18:32:42.931Z,88.97
2022-12-17T18:35:11.134Z,87.97
2022-12-17T18:37:39.290Z,88.01
2022-12-17T18:40:08.253Z,90.18
2022-12-17T18:42:55.016Z,87.58
2022-12-17T18:45:23.112Z,90.13
2022-12-17T18:47:51.664Z,91.12
2022-12-17T18:50:22.815Z,92.04
2022-12-17T18:52:51.124Z,91.20
2022-12-17T18:55:19.275Z,89.46
2022-12-17T18:57:47.597Z,89.02
2022-12-17T19:00:15.760Z,87.44
2022-12-17T19:02:44.600Z,88.71
2022-12-17T19:05:12.610Z,89.41
2022-12-17T19:07:40.937Z,88.59
2022-12-17T19:10:09.385Z,88.48
2022-12-17T19:12:37.322Z,87.37
2022-12-17T19:15:05.906Z,87.61
2022-12-17T19:17:34.222Z,88.92
2022-12-17T19:20:02.204Z,89.37
2022-12-17T19:22:30.734Z,88.50
2022-12-17T19:24:58.808Z,89.00
2022-12-17T19:27:26.655Z,88.34
2022-12-17T19:29:57.390Z,90.00
2022-12-17T19:32:25.726Z,90.44
2022-12-17T19:34:53.600Z,88.77
2022-12-17T19:37:22.297Z,87.44
2022-12-17T19:39:50.467Z,88.28
2022-12-17T19:42:33.444Z,88.16
2022-12-17T19:45:05.691Z,87.64
2022-12-17T19:47:33.732Z,88.54
2022-12-17T19:50:02.117Z,87.53
2022-12-17T19:52:30.693Z,88.36
2022-12-17T19:54:58.635Z,88.10
2022-12-17T19:57:26.413Z,89.13
2022-12-17T19:59:54.708Z,87.29
2022-12-17T20:02:24.106Z,89.54
2022-12-17T20:04:57.944Z,88.58
2022-12-17T20:07:25.992Z,89.93
2022-12-17T20:09:57.007Z,89.98
2022-12-17T20:12:25.056Z,90.64
2022-12-17T20:14:52.919Z,89.21
2022-12-17T20:17:21.350Z,89.72
2022-12-17T20:19:49.895Z,91.12
2022-12-17T20:22:17.647Z,89.63
2022-12-17T20:24:45.956Z,90.04
2022-12-17T20:27:14.238Z,90.16
2022-12-17T20:29:42.095Z,90.18
2022-12-17T20:32:10.392Z,92.20
2022-12-17T20:34:38.314Z,89.66
2022-12-17T20:37:06.103Z,89.59
2022-12-17T20:39:34.239Z,90.75
2022-12-17T20:42:02.102Z,90.93
2022-12-17T20:44:30.021Z,91.93
2022-12-17T20:46:58.467Z,91.06
2022-12-17T20:49:26.306Z,88.75
2022-12-17T20:51:54.454Z,87.95
2022-12-17T20:54:22.640Z,89.57
2022-12-17T20:56:50.480Z,92.09
2022-12-17T20:59:19.664Z,90.47
2022-12-17T21:01:52.995Z,90.27
2022-12-17T21:04:24.578Z,90.00
2022-12-17T21:06:53.318Z,91.19
2022-12-17T21:09:22.950Z,92.57
2022-12-17T21:11:50.735Z,91.06
2022-12-17T21:14:20.117Z,91.37
2022-12-17T21:16:48.245Z,92.11
2022-12-17T21:19:18.951Z,89.62
2022-12-17T21:21:50.437Z,92.32
2022-12-17T21:24:18.313Z,92.30
2022-12-17T21:26:47.538Z,92.30
2022-12-17T21:29:17.527Z,92.65
2022-12-17T21:31:51.586Z,94.55
2022-12-17T21:34:22.138Z,94.99
2022-12-17T21:36:51.297Z,95.06
2022-12-17T21:39:20.748Z,96.33
2022-12-17T21:42:07.867Z,94.69
2022-12-17T21:44:40.105Z,92.85
2022-12-17T21:47:10.975Z,94.33
2022-12-17T21:49:44.488Z,94.49
2022-12-17T21:52:12.767Z,94.66
2022-12-17T21:54:41.030Z,94.58
2022-12-17T21:57:08.972Z,92.65
2022-12-17T21:59:36.794Z,91.11
2022-12-17T22:02:10.818Z,93.87
2022-12-17T22:04:39.384Z,92.11
2022-12-17T22:07:15.846Z,93.30
2022-12-17T22:10:25.196Z,93.62
2022-12-17T22:12:56.670Z,94.86
2022-12-17T22:15:25.958Z,93.71
2022-12-17T22:17:58.561Z,94.32
2022-12-17T22:20:27.748Z,93.50
2022-12-17T22:22:55.946Z,95.68
2022-12-17T22:25:27.061Z,94.21
2022-12-17T22:27:55.137Z,90.09
2022-12-17T22:30:52.026Z,92.14
2022-12-17T22:33:44.876Z,94.23
2022-12-17T22:37:59.663Z,93.24
2022-12-17T22:41:30.533Z,92.06
2022-12-17T22:44:31.064Z,94.13
2022-12-17T22:45:06.096Z,94.75
2022-12-17T22:47:36.613Z,96.19
2022-12-17T22:50:05.194Z,94.17
2022-12-17T22:52:33.901Z,94.43
2022-12-17T22:55:02.466Z,94.32
2022-12-17T22:57:37.617Z,94.87
2022-12-17T23:00:16.209Z,94.96
2022-12-17T23:02:44.528Z,95.05
2022-12-17T23:05:12.290Z,96.66
2022-12-17T23:07:40.141Z,98.11
2022-12-17T23:10:08.621Z,98.69
2022-12-17T23:12:52.059Z,97.55
2022-12-17T23:15:35.083Z,99.10
2022-12-17T23:18:05.974Z,98.60
2022-12-17T23:20:37.183Z,98.01
2022-12-17T23:23:05.023Z,98.21
2022-12-17T23:25:33.337Z,98.01
2022-12-17T23:28:01.675Z,99.13
2022-12-17T23:30:29.643Z,99.53
2022-12-17T23:32:57.443Z,100.00
2022-12-17T23:35:25.682Z,100.00
2022-12-17T23:37:53.505Z,100.00
2022-12-17T23:40:22.298Z,100.00
2022-12-17T23:42:50.429Z,100.00
2022-12-17T23:45:18.307Z,100.00
2022-12-17T23:47:46.139Z,100.00
2022-12-17T23:50:14.601Z,100.00
2022-12-17T23:52:45.465Z,100.00
2022-12-17T23:55:16.566Z,100.00
2022-12-17T23:57:44.781Z,100.00
